sensor_id;sensor_type;location;lat;lon;timestamp;P1;durP1;ratioP1;P2;durP2;ratioP2
14381;SDS011;7275;50.328;8.720;2023-03-21T00:01:01;3.23;;;2.33;;
14381;SDS011;7275;50.328;8.720;2023-03-21T00:03:30;3.00;;;2.20;;
14381;SDS011;7275;50.328;8.720;2023-03-21T00:05:59;3.50;;;2.50;;
14381;SDS011;7275;50.328;8.720;2023-03-21T00:08:31;3.70;;;2.40;;
14381;SDS011;7275;50.328;8.720;2023-03-21T00:10:59;3.13;;;2.30;;
14381;SDS011;7275;50.328;8.720;2023-03-21T00:13:30;3.47;;;2.37;;
14381;SDS011;7275;50.328;8.720;2023-03-21T00:16:02;4.00;;;2.30;;
14381;SDS011;7275;50.328;8.720;2023-03-21T00:18:45;3.10;;;2.40;;
14381;SDS011;7275;50.328;8.720;2023-03-21T00:21:17;3.37;;;2.43;;
14381;SDS011;7275;50.328;8.720;2023-03-21T00:24:06;4.37;;;2.50;;
14381;SDS011;7275;50.328;8.720;2023-03-21T00:26:34;4.57;;;2.73;;
14381;SDS011;7275;50.328;8.720;2023-03-21T00:29:04;4.20;;;2.93;;
14381;SDS011;7275;50.328;8.720;2023-03-21T00:31:32;4.73;;;2.60;;
14381;SDS011;7275;50.328;8.720;2023-03-21T00:34:00;5.20;;;2.80;;
14381;SDS011;7275;50.328;8.720;2023-03-21T00:36:27;4.33;;;2.80;;
14381;SDS011;7275;50.328;8.720;2023-03-21T00:38:55;3.77;;;2.60;;
14381;SDS011;7275;50.328;8.720;2023-03-21T00:41:23;4.77;;;2.70;;
14381;SDS011;7275;50.328;8.720;2023-03-21T00:44:08;4.77;;;2.40;;
14381;SDS011;7275;50.328;8.720;2023-03-21T00:46:36;3.23;;;2.63;;
14381;SDS011;7275;50.328;8.720;2023-03-21T00:49:16;4.20;;;2.90;;
14381;SDS011;7275;50.328;8.720;2023-03-21T00:51:45;3.97;;;2.90;;
14381;SDS011;7275;50.328;8.720;2023-03-21T00:54:17;4.17;;;2.70;;
14381;SDS011;7275;50.328;8.720;2023-03-21T00:56:44;5.13;;;3.00;;
14381;SDS011;7275;50.328;8.720;2023-03-21T00:59:13;5.33;;;3.10;;
14381;SDS011;7275;50.328;8.720;2023-03-21T01:01:41;3.57;;;2.80;;
14381;SDS011;7275;50.328;8.720;2023-03-21T01:04:12;4.73;;;2.90;;
14381;SDS011;7275;50.328;8.720;2023-03-21T01:06:41;4.83;;;3.17;;
14381;SDS011;7275;50.328;8.720;2023-03-21T01:09:10;4.30;;;3.10;;
14381;SDS011;7275;50.328;8.720;2023-03-21T01:11:39;3.27;;;2.90;;
14381;SDS011;7275;50.328;8.720;2023-03-21T01:14:07;5.20;;;3.20;;
14381;SDS011;7275;50.328;8.720;2023-03-21T01:16:49;4.50;;;2.83;;
14381;SDS011;7275;50.328;8.720;2023-03-21T01:19:18;3.40;;;2.67;;
14381;SDS011;7275;50.328;8.720;2023-03-21T01:21:54;4.20;;;2.90;;
14381;SDS011;7275;50.328;8.720;2023-03-21T01:24:22;4.27;;;2.97;;
14381;SDS011;7275;50.328;8.720;2023-03-21T01:26:50;3.53;;;2.83;;
14381;SDS011;7275;50.328;8.720;2023-03-21T01:29:17;3.57;;;2.87;;
14381;SDS011;7275;50.328;8.720;2023-03-21T01:31:45;3.40;;;2.70;;
14381;SDS011;7275;50.328;8.720;2023-03-21T01:34:14;3.20;;;2.70;;
14381;SDS011;7275;50.328;8.720;2023-03-21T01:36:42;4.27;;;2.93;;
14381;SDS011;7275;50.328;8.720;2023-03-21T01:39:09;3.83;;;2.70;;
14381;SDS011;7275;50.328;8.720;2023-03-21T01:41:37;4.93;;;2.83;;
14381;SDS011;7275;50.328;8.720;2023-03-21T01:44:11;3.93;;;2.70;;
14381;SDS011;7275;50.328;8.720;2023-03-21T01:46:42;5.53;;;2.67;;
14381;SDS011;7275;50.328;8.720;2023-03-21T01:49:27;3.30;;;2.43;;
14381;SDS011;7275;50.328;8.720;2023-03-21T01:52:00;3.47;;;2.50;;
14381;SDS011;7275;50.328;8.720;2023-03-21T01:54:39;3.37;;;2.70;;
14381;SDS011;7275;50.328;8.720;2023-03-21T01:57:11;4.10;;;2.63;;
14381;SDS011;7275;50.328;8.720;2023-03-21T01:59:43;3.30;;;2.47;;
14381;SDS011;7275;50.328;8.720;2023-03-21T02:02:15;4.07;;;2.80;;
14381;SDS011;7275;50.328;8.720;2023-03-21T02:04:49;3.57;;;2.80;;
14381;SDS011;7275;50.328;8.720;2023-03-21T02:07:23;3.60;;;2.60;;
14381;SDS011;7275;50.328;8.720;2023-03-21T02:09:54;3.70;;;2.50;;
14381;SDS011;7275;50.328;8.720;2023-03-21T02:12:22;2.87;;;2.37;;
14381;SDS011;7275;50.328;8.720;2023-03-21T02:14:50;3.70;;;2.53;;
14381;SDS011;7275;50.328;8.720;2023-03-21T02:17:21;2.80;;;2.50;;
14381;SDS011;7275;50.328;8.720;2023-03-21T02:20:08;3.53;;;2.67;;
14381;SDS011;7275;50.328;8.720;2023-03-21T02:22:59;4.53;;;2.57;;
14381;SDS011;7275;50.328;8.720;2023-03-21T02:25:40;3.93;;;2.80;;
14381;SDS011;7275;50.328;8.720;2023-03-21T02:28:22;4.57;;;2.60;;
14381;SDS011;7275;50.328;8.720;2023-03-21T02:30:57;4.63;;;2.70;;
14381;SDS011;7275;50.328;8.720;2023-03-21T02:33:53;3.50;;;2.50;;
14381;SDS011;7275;50.328;8.720;2023-03-21T02:36:54;3.10;;;2.63;;
14381;SDS011;7275;50.328;8.720;2023-03-21T02:39:28;4.40;;;2.53;;
14381;SDS011;7275;50.328;8.720;2023-03-21T02:42:04;4.23;;;2.70;;
14381;SDS011;7275;50.328;8.720;2023-03-21T02:44:38;4.00;;;2.73;;
14381;SDS011;7275;50.328;8.720;2023-03-21T02:47:11;4.30;;;2.93;;
14381;SDS011;7275;50.328;8.720;2023-03-21T02:49:45;4.70;;;2.80;;
14381;SDS011;7275;50.328;8.720;2023-03-21T02:52:19;3.73;;;2.97;;
14381;SDS011;7275;50.328;8.720;2023-03-21T02:55:04;3.47;;;2.60;;
14381;SDS011;7275;50.328;8.720;2023-03-21T02:57:39;2.93;;;2.43;;
14381;SDS011;7275;50.328;8.720;2023-03-21T03:00:10;3.80;;;2.90;;
14381;SDS011;7275;50.328;8.720;2023-03-21T03:02:43;3.50;;;2.60;;
14381;SDS011;7275;50.328;8.720;2023-03-21T03:05:15;3.60;;;2.53;;
14381;SDS011;7275;50.328;8.720;2023-03-21T03:07:55;4.77;;;2.43;;
14381;SDS011;7275;50.328;8.720;2023-03-21T03:10:35;3.57;;;2.63;;
14381;SDS011;7275;50.328;8.720;2023-03-21T03:13:14;4.23;;;2.40;;
14381;SDS011;7275;50.328;8.720;2023-03-21T03:15:51;4.60;;;2.67;;
14381;SDS011;7275;50.328;8.720;2023-03-21T03:18:27;4.40;;;2.67;;
14381;SDS011;7275;50.328;8.720;2023-03-21T03:21:01;3.70;;;2.40;;
14381;SDS011;7275;50.328;8.720;2023-03-21T03:23:40;2.83;;;2.47;;
14381;SDS011;7275;50.328;8.720;2023-03-21T03:26:13;4.90;;;2.40;;
14381;SDS011;7275;50.328;8.720;2023-03-21T03:28:44;6.03;;;3.00;;
14381;SDS011;7275;50.328;8.720;2023-03-21T03:31:17;4.70;;;2.30;;
14381;SDS011;7275;50.328;8.720;2023-03-21T03:33:52;5.40;;;2.93;;
14381;SDS011;7275;50.328;8.720;2023-03-21T03:36:23;4.57;;;2.70;;
14381;SDS011;7275;50.328;8.720;2023-03-21T03:38:59;4.73;;;2.70;;
14381;SDS011;7275;50.328;8.720;2023-03-21T03:41:30;3.20;;;2.63;;
14381;SDS011;7275;50.328;8.720;2023-03-21T03:44:21;3.83;;;2.60;;
14381;SDS011;7275;50.328;8.720;2023-03-21T03:46:50;3.83;;;2.50;;
14381;SDS011;7275;50.328;8.720;2023-03-21T03:49:23;3.13;;;2.37;;
14381;SDS011;7275;50.328;8.720;2023-03-21T03:51:54;3.43;;;2.60;;
14381;SDS011;7275;50.328;8.720;2023-03-21T03:54:29;4.07;;;2.57;;
14381;SDS011;7275;50.328;8.720;2023-03-21T03:56:59;3.77;;;2.90;;
14381;SDS011;7275;50.328;8.720;2023-03-21T03:59:27;3.80;;;2.63;;
14381;SDS011;7275;50.328;8.720;2023-03-21T04:01:55;2.63;;;2.30;;
14381;SDS011;7275;50.328;8.720;2023-03-21T04:04:22;3.53;;;2.77;;
14381;SDS011;7275;50.328;8.720;2023-03-21T04:06:54;2.83;;;2.40;;
14381;SDS011;7275;50.328;8.720;2023-03-21T04:09:23;2.63;;;2.43;;
14381;SDS011;7275;50.328;8.720;2023-03-21T04:12:09;3.27;;;2.30;;
14381;SDS011;7275;50.328;8.720;2023-03-21T04:14:37;4.57;;;2.87;;
14381;SDS011;7275;50.328;8.720;2023-03-21T04:17:12;3.00;;;2.50;;
14381;SDS011;7275;50.328;8.720;2023-03-21T04:19:39;3.13;;;2.20;;
14381;SDS011;7275;50.328;8.720;2023-03-21T04:22:07;3.10;;;2.27;;
14381;SDS011;7275;50.328;8.720;2023-03-21T04:24:35;4.10;;;2.20;;
14381;SDS011;7275;50.328;8.720;2023-03-21T04:27:02;3.80;;;2.40;;
14381;SDS011;7275;50.328;8.720;2023-03-21T04:29:33;3.30;;;2.30;;
14381;SDS011;7275;50.328;8.720;2023-03-21T04:32:00;3.40;;;2.43;;
14381;SDS011;7275;50.328;8.720;2023-03-21T04:34:28;3.10;;;2.30;;
14381;SDS011;7275;50.328;8.720;2023-03-21T04:36:56;4.20;;;2.20;;
14381;SDS011;7275;50.328;8.720;2023-03-21T04:39:23;3.10;;;2.30;;
14381;SDS011;7275;50.328;8.720;2023-03-21T04:41:51;4.93;;;2.37;;
14381;SDS011;7275;50.328;8.720;2023-03-21T04:44:18;3.03;;;2.30;;
14381;SDS011;7275;50.328;8.720;2023-03-21T04:46:47;3.77;;;2.30;;
14381;SDS011;7275;50.328;8.720;2023-03-21T04:49:15;3.10;;;2.10;;
14381;SDS011;7275;50.328;8.720;2023-03-21T04:51:43;3.87;;;2.37;;
14381;SDS011;7275;50.328;8.720;2023-03-21T04:54:11;4.30;;;2.20;;
14381;SDS011;7275;50.328;8.720;2023-03-21T04:56:39;3.47;;;2.37;;
14381;SDS011;7275;50.328;8.720;2023-03-21T04:59:09;3.63;;;2.40;;
14381;SDS011;7275;50.328;8.720;2023-03-21T05:01:39;3.27;;;2.40;;
14381;SDS011;7275;50.328;8.720;2023-03-21T05:04:11;4.20;;;2.47;;
14381;SDS011;7275;50.328;8.720;2023-03-21T05:06:40;4.97;;;2.50;;
14381;SDS011;7275;50.328;8.720;2023-03-21T05:09:08;3.90;;;2.30;;
14381;SDS011;7275;50.328;8.720;2023-03-21T05:11:37;4.43;;;2.73;;
14381;SDS011;7275;50.328;8.720;2023-03-21T05:14:06;2.80;;;2.33;;
14381;SDS011;7275;50.328;8.720;2023-03-21T05:16:37;3.53;;;2.47;;
14381;SDS011;7275;50.328;8.720;2023-03-21T05:19:11;3.63;;;2.80;;
14381;SDS011;7275;50.328;8.720;2023-03-21T05:21:39;4.07;;;2.63;;
14381;SDS011;7275;50.328;8.720;2023-03-21T05:24:07;4.33;;;2.60;;
14381;SDS011;7275;50.328;8.720;2023-03-21T05:26:38;4.03;;;2.60;;
14381;SDS011;7275;50.328;8.720;2023-03-21T05:29:06;3.97;;;2.63;;
14381;SDS011;7275;50.328;8.720;2023-03-21T05:31:34;3.87;;;2.80;;
14381;SDS011;7275;50.328;8.720;2023-03-21T05:34:02;6.10;;;2.70;;
14381;SDS011;7275;50.328;8.720;2023-03-21T05:36:31;4.73;;;2.97;;
14381;SDS011;7275;50.328;8.720;2023-03-21T05:39:01;3.93;;;2.90;;
14381;SDS011;7275;50.328;8.720;2023-03-21T05:41:29;4.13;;;3.10;;
14381;SDS011;7275;50.328;8.720;2023-03-21T05:43:57;5.00;;;3.30;;
14381;SDS011;7275;50.328;8.720;2023-03-21T05:46:25;3.57;;;2.67;;
14381;SDS011;7275;50.328;8.720;2023-03-21T05:48:53;4.70;;;2.80;;
14381;SDS011;7275;50.328;8.720;2023-03-21T05:51:20;5.47;;;3.20;;
14381;SDS011;7275;50.328;8.720;2023-03-21T05:53:49;5.10;;;2.80;;
14381;SDS011;7275;50.328;8.720;2023-03-21T05:56:17;5.00;;;3.17;;
14381;SDS011;7275;50.328;8.720;2023-03-21T05:58:45;3.27;;;2.70;;
14381;SDS011;7275;50.328;8.720;2023-03-21T06:01:13;4.80;;;3.00;;
14381;SDS011;7275;50.328;8.720;2023-03-21T06:03:40;6.47;;;3.30;;
14381;SDS011;7275;50.328;8.720;2023-03-21T06:06:08;5.17;;;3.33;;
14381;SDS011;7275;50.328;8.720;2023-03-21T06:08:36;4.80;;;2.90;;
14381;SDS011;7275;50.328;8.720;2023-03-21T06:11:16;5.93;;;3.40;;
14381;SDS011;7275;50.328;8.720;2023-03-21T06:13:49;3.53;;;2.70;;
14381;SDS011;7275;50.328;8.720;2023-03-21T06:16:17;4.43;;;3.27;;
14381;SDS011;7275;50.328;8.720;2023-03-21T06:18:44;4.93;;;3.30;;
14381;SDS011;7275;50.328;8.720;2023-03-21T06:21:12;5.17;;;3.30;;
14381;SDS011;7275;50.328;8.720;2023-03-21T06:23:40;4.80;;;3.13;;
14381;SDS011;7275;50.328;8.720;2023-03-21T06:26:09;6.30;;;3.20;;
14381;SDS011;7275;50.328;8.720;2023-03-21T06:28:36;4.80;;;3.43;;
14381;SDS011;7275;50.328;8.720;2023-03-21T06:31:04;4.07;;;3.40;;
14381;SDS011;7275;50.328;8.720;2023-03-21T06:33:32;5.13;;;3.70;;
14381;SDS011;7275;50.328;8.720;2023-03-21T06:36:00;5.10;;;3.90;;
14381;SDS011;7275;50.328;8.720;2023-03-21T06:38:27;6.70;;;4.40;;
14381;SDS011;7275;50.328;8.720;2023-03-21T06:40:55;4.80;;;4.13;;
14381;SDS011;7275;50.328;8.720;2023-03-21T06:43:24;6.47;;;4.43;;
14381;SDS011;7275;50.328;8.720;2023-03-21T06:45:51;5.70;;;4.40;;
14381;SDS011;7275;50.328;8.720;2023-03-21T06:48:19;5.03;;;4.10;;
14381;SDS011;7275;50.328;8.720;2023-03-21T06:50:47;5.10;;;4.00;;
14381;SDS011;7275;50.328;8.720;2023-03-21T06:53:15;5.30;;;4.13;;
14381;SDS011;7275;50.328;8.720;2023-03-21T06:55:47;6.43;;;4.40;;
14381;SDS011;7275;50.328;8.720;2023-03-21T06:58:15;6.23;;;4.43;;
14381;SDS011;7275;50.328;8.720;2023-03-21T07:00:44;5.23;;;4.30;;
14381;SDS011;7275;50.328;8.720;2023-03-21T07:03:12;7.73;;;4.60;;
14381;SDS011;7275;50.328;8.720;2023-03-21T07:05:40;6.50;;;4.90;;
14381;SDS011;7275;50.328;8.720;2023-03-21T07:08:08;7.00;;;4.57;;
14381;SDS011;7275;50.328;8.720;2023-03-21T07:10:37;5.80;;;4.67;;
14381;SDS011;7275;50.328;8.720;2023-03-21T07:13:05;5.77;;;4.63;;
14381;SDS011;7275;50.328;8.720;2023-03-21T07:15:33;7.67;;;5.40;;
14381;SDS011;7275;50.328;8.720;2023-03-21T07:18:05;5.30;;;4.63;;
14381;SDS011;7275;50.328;8.720;2023-03-21T07:20:34;6.33;;;5.00;;
14381;SDS011;7275;50.328;8.720;2023-03-21T07:23:03;5.83;;;5.17;;
14381;SDS011;7275;50.328;8.720;2023-03-21T07:25:31;5.30;;;4.53;;
14381;SDS011;7275;50.328;8.720;2023-03-21T07:27:59;6.40;;;5.17;;
14381;SDS011;7275;50.328;8.720;2023-03-21T07:30:27;7.17;;;4.73;;
14381;SDS011;7275;50.328;8.720;2023-03-21T07:32:54;6.63;;;4.47;;
14381;SDS011;7275;50.328;8.720;2023-03-21T07:35:23;6.23;;;4.77;;
14381;SDS011;7275;50.328;8.720;2023-03-21T07:37:50;6.13;;;4.37;;
14381;SDS011;7275;50.328;8.720;2023-03-21T07:40:19;5.67;;;4.57;;
14381;SDS011;7275;50.328;8.720;2023-03-21T07:42:47;5.33;;;4.40;;
14381;SDS011;7275;50.328;8.720;2023-03-21T07:45:15;6.23;;;4.40;;
14381;SDS011;7275;50.328;8.720;2023-03-21T07:47:46;6.00;;;4.50;;
14381;SDS011;7275;50.328;8.720;2023-03-21T07:50:14;5.80;;;4.43;;
14381;SDS011;7275;50.328;8.720;2023-03-21T07:52:43;5.90;;;4.13;;
14381;SDS011;7275;50.328;8.720;2023-03-21T07:55:11;7.17;;;4.47;;
14381;SDS011;7275;50.328;8.720;2023-03-21T07:57:39;5.87;;;4.40;;
14381;SDS011;7275;50.328;8.720;2023-03-21T08:00:07;6.60;;;4.50;;
14381;SDS011;7275;50.328;8.720;2023-03-21T08:02:35;4.90;;;4.37;;
14381;SDS011;7275;50.328;8.720;2023-03-21T08:05:03;7.00;;;4.50;;
14381;SDS011;7275;50.328;8.720;2023-03-21T08:07:31;5.57;;;4.17;;
14381;SDS011;7275;50.328;8.720;2023-03-21T08:10:00;5.77;;;4.30;;
14381;SDS011;7275;50.328;8.720;2023-03-21T08:12:28;5.40;;;3.87;;
14381;SDS011;7275;50.328;8.720;2023-03-21T08:14:55;6.03;;;4.20;;
14381;SDS011;7275;50.328;8.720;2023-03-21T08:17:26;4.90;;;4.17;;
14381;SDS011;7275;50.328;8.720;2023-03-21T08:19:53;5.37;;;4.27;;
14381;SDS011;7275;50.328;8.720;2023-03-21T08:22:21;6.10;;;4.97;;
14381;SDS011;7275;50.328;8.720;2023-03-21T08:24:48;7.80;;;5.00;;
14381;SDS011;7275;50.328;8.720;2023-03-21T08:27:17;4.70;;;4.03;;
14381;SDS011;7275;50.328;8.720;2023-03-21T08:29:45;5.67;;;4.17;;
14381;SDS011;7275;50.328;8.720;2023-03-21T08:32:13;5.93;;;4.50;;
14381;SDS011;7275;50.328;8.720;2023-03-21T08:34:40;5.00;;;3.93;;
14381;SDS011;7275;50.328;8.720;2023-03-21T08:37:08;4.70;;;3.83;;
14381;SDS011;7275;50.328;8.720;2023-03-21T08:39:35;7.23;;;4.33;;
14381;SDS011;7275;50.328;8.720;2023-03-21T08:42:04;6.60;;;4.20;;
14381;SDS011;7275;50.328;8.720;2023-03-21T08:44:33;6.80;;;4.10;;
14381;SDS011;7275;50.328;8.720;2023-03-21T08:47:00;7.20;;;4.17;;
14381;SDS011;7275;50.328;8.720;2023-03-21T08:49:28;6.03;;;4.00;;
14381;SDS011;7275;50.328;8.720;2023-03-21T08:51:56;6.57;;;4.20;;
14381;SDS011;7275;50.328;8.720;2023-03-21T08:54:23;5.97;;;3.60;;
14381;SDS011;7275;50.328;8.720;2023-03-21T08:56:50;5.73;;;3.93;;
14381;SDS011;7275;50.328;8.720;2023-03-21T08:59:19;6.07;;;4.03;;
14381;SDS011;7275;50.328;8.720;2023-03-21T09:01:48;7.33;;;4.27;;
14381;SDS011;7275;50.328;8.720;2023-03-21T09:04:16;6.80;;;4.60;;
14381;SDS011;7275;50.328;8.720;2023-03-21T09:06:44;5.60;;;3.97;;
14381;SDS011;7275;50.328;8.720;2023-03-21T09:09:12;4.60;;;3.83;;
14381;SDS011;7275;50.328;8.720;2023-03-21T09:11:39;6.00;;;4.07;;
14381;SDS011;7275;50.328;8.720;2023-03-21T09:14:07;6.50;;;4.07;;
14381;SDS011;7275;50.328;8.720;2023-03-21T09:16:36;5.27;;;3.70;;
14381;SDS011;7275;50.328;8.720;2023-03-21T09:19:05;5.47;;;3.43;;
14381;SDS011;7275;50.328;8.720;2023-03-21T09:21:34;4.90;;;3.40;;
14381;SDS011;7275;50.328;8.720;2023-03-21T09:24:03;5.37;;;3.30;;
14381;SDS011;7275;50.328;8.720;2023-03-21T09:26:31;5.20;;;3.40;;
14381;SDS011;7275;50.328;8.720;2023-03-21T09:28:59;4.27;;;3.03;;
14381;SDS011;7275;50.328;8.720;2023-03-21T09:31:30;4.47;;;3.53;;
14381;SDS011;7275;50.328;8.720;2023-03-21T09:33:57;7.40;;;3.80;;
14381;SDS011;7275;50.328;8.720;2023-03-21T09:36:26;4.67;;;3.30;;
14381;SDS011;7275;50.328;8.720;2023-03-21T09:38:57;5.20;;;3.43;;
14381;SDS011;7275;50.328;8.720;2023-03-21T09:41:29;4.57;;;3.13;;
14381;SDS011;7275;50.328;8.720;2023-03-21T09:44:10;5.30;;;3.03;;
14381;SDS011;7275;50.328;8.720;2023-03-21T09:46:48;6.53;;;3.40;;
14381;SDS011;7275;50.328;8.720;2023-03-21T09:49:20;4.80;;;3.50;;
14381;SDS011;7275;50.328;8.720;2023-03-21T09:51:58;5.00;;;3.40;;
14381;SDS011;7275;50.328;8.720;2023-03-21T09:54:29;8.23;;;3.70;;
14381;SDS011;7275;50.328;8.720;2023-03-21T09:57:02;4.77;;;3.53;;
14381;SDS011;7275;50.328;8.720;2023-03-21T09:59:40;5.13;;;3.40;;
14381;SDS011;7275;50.328;8.720;2023-03-21T10:02:15;5.53;;;3.63;;
14381;SDS011;7275;50.328;8.720;2023-03-21T10:04:57;5.90;;;3.50;;
14381;SDS011;7275;50.328;8.720;2023-03-21T10:07:27;5.30;;;3.60;;
14381;SDS011;7275;50.328;8.720;2023-03-21T10:09:58;4.80;;;3.30;;
14381;SDS011;7275;50.328;8.720;2023-03-21T10:12:28;7.50;;;4.00;;
14381;SDS011;7275;50.328;8.720;2023-03-21T10:14:57;7.23;;;3.80;;
14381;SDS011;7275;50.328;8.720;2023-03-21T10:17:28;4.80;;;3.50;;
14381;SDS011;7275;50.328;8.720;2023-03-21T10:20:00;6.83;;;3.67;;
14381;SDS011;7275;50.328;8.720;2023-03-21T10:22:41;4.97;;;3.67;;
14381;SDS011;7275;50.328;8.720;2023-03-21T10:25:12;6.20;;;3.90;;
14381;SDS011;7275;50.328;8.720;2023-03-21T10:27:43;5.87;;;3.63;;
14381;SDS011;7275;50.328;8.720;2023-03-21T10:30:17;5.33;;;3.70;;
14381;SDS011;7275;50.328;8.720;2023-03-21T10:32:51;7.30;;;3.90;;
14381;SDS011;7275;50.328;8.720;2023-03-21T10:35:18;6.93;;;4.10;;
14381;SDS011;7275;50.328;8.720;2023-03-21T10:37:47;6.03;;;3.87;;
14381;SDS011;7275;50.328;8.720;2023-03-21T10:40:15;7.10;;;3.80;;
14381;SDS011;7275;50.328;8.720;2023-03-21T10:42:43;6.60;;;3.97;;
14381;SDS011;7275;50.328;8.720;2023-03-21T10:45:15;6.60;;;3.97;;
14381;SDS011;7275;50.328;8.720;2023-03-21T10:47:46;5.83;;;3.93;;
14381;SDS011;7275;50.328;8.720;2023-03-21T10:50:15;5.83;;;3.40;;
14381;SDS011;7275;50.328;8.720;2023-03-21T10:52:52;5.43;;;3.33;;
14381;SDS011;7275;50.328;8.720;2023-03-21T10:55:26;7.13;;;3.97;;
14381;SDS011;7275;50.328;8.720;2023-03-21T10:57:58;5.73;;;4.00;;
14381;SDS011;7275;50.328;8.720;2023-03-21T11:00:33;7.27;;;4.00;;
14381;SDS011;7275;50.328;8.720;2023-03-21T11:03:03;5.03;;;3.37;;
14381;SDS011;7275;50.328;8.720;2023-03-21T11:05:33;5.37;;;3.63;;
14381;SDS011;7275;50.328;8.720;2023-03-21T11:08:04;6.03;;;3.43;;
14381;SDS011;7275;50.328;8.720;2023-03-21T11:10:37;7.27;;;3.50;;
14381;SDS011;7275;50.328;8.720;2023-03-21T11:13:17;6.93;;;3.37;;
14381;SDS011;7275;50.328;8.720;2023-03-21T11:15:51;5.07;;;3.30;;
14381;SDS011;7275;50.328;8.720;2023-03-21T11:18:21;5.33;;;4.03;;
14381;SDS011;7275;50.328;8.720;2023-03-21T11:20:51;6.63;;;3.53;;
14381;SDS011;7275;50.328;8.720;2023-03-21T11:23:23;5.53;;;3.70;;
14381;SDS011;7275;50.328;8.720;2023-03-21T11:25:53;5.17;;;3.57;;
14381;SDS011;7275;50.328;8.720;2023-03-21T11:28:21;6.40;;;3.20;;
14381;SDS011;7275;50.328;8.720;2023-03-21T11:30:51;6.30;;;3.33;;
14381;SDS011;7275;50.328;8.720;2023-03-21T11:33:22;5.27;;;3.30;;
14381;SDS011;7275;50.328;8.720;2023-03-21T11:35:57;5.13;;;3.00;;
14381;SDS011;7275;50.328;8.720;2023-03-21T11:38:28;4.10;;;2.80;;
14381;SDS011;7275;50.328;8.720;2023-03-21T11:40:58;4.60;;;2.77;;
14381;SDS011;7275;50.328;8.720;2023-03-21T11:43:28;3.87;;;2.73;;
14381;SDS011;7275;50.328;8.720;2023-03-21T11:45:58;4.97;;;2.90;;
14381;SDS011;7275;50.328;8.720;2023-03-21T11:48:27;5.53;;;3.03;;
14381;SDS011;7275;50.328;8.720;2023-03-21T11:50:57;4.20;;;2.87;;
14381;SDS011;7275;50.328;8.720;2023-03-21T11:53:35;5.60;;;2.73;;
14381;SDS011;7275;50.328;8.720;2023-03-21T11:56:09;4.90;;;2.83;;
14381;SDS011;7275;50.328;8.720;2023-03-21T11:58:50;5.03;;;2.80;;
14381;SDS011;7275;50.328;8.720;2023-03-21T12:01:30;4.83;;;2.97;;
14381;SDS011;7275;50.328;8.720;2023-03-21T12:04:12;4.90;;;3.00;;
14381;SDS011;7275;50.328;8.720;2023-03-21T12:06:52;4.13;;;3.00;;
14381;SDS011;7275;50.328;8.720;2023-03-21T12:09:28;5.47;;;3.20;;
14381;SDS011;7275;50.328;8.720;2023-03-21T12:12:09;4.53;;;3.43;;
14381;SDS011;7275;50.328;8.720;2023-03-21T12:15:04;6.33;;;3.50;;
14381;SDS011;7275;50.328;8.720;2023-03-21T12:17:42;5.23;;;3.30;;
14381;SDS011;7275;50.328;8.720;2023-03-21T12:20:28;5.17;;;3.37;;
14381;SDS011;7275;50.328;8.720;2023-03-21T12:23:10;5.80;;;3.47;;
14381;SDS011;7275;50.328;8.720;2023-03-21T12:25:49;5.30;;;3.40;;
14381;SDS011;7275;50.328;8.720;2023-03-21T12:28:24;5.00;;;3.83;;
14381;SDS011;7275;50.328;8.720;2023-03-21T12:31:04;6.13;;;4.07;;
14381;SDS011;7275;50.328;8.720;2023-03-21T12:33:39;6.10;;;3.63;;
14381;SDS011;7275;50.328;8.720;2023-03-21T12:36:22;4.70;;;3.30;;
14381;SDS011;7275;50.328;8.720;2023-03-21T12:39:01;4.93;;;3.43;;
14381;SDS011;7275;50.328;8.720;2023-03-21T12:41:40;4.57;;;3.20;;
14381;SDS011;7275;50.328;8.720;2023-03-21T12:44:11;3.30;;;2.97;;
14381;SDS011;7275;50.328;8.720;2023-03-21T12:46:42;4.83;;;3.20;;
14381;SDS011;7275;50.328;8.720;2023-03-21T12:49:12;5.37;;;3.00;;
14381;SDS011;7275;50.328;8.720;2023-03-21T12:51:45;3.43;;;2.83;;
14381;SDS011;7275;50.328;8.720;2023-03-21T12:54:19;4.37;;;2.70;;
14381;SDS011;7275;50.328;8.720;2023-03-21T12:56:53;3.67;;;2.70;;
14381;SDS011;7275;50.328;8.720;2023-03-21T12:59:29;3.73;;;2.60;;
14381;SDS011;7275;50.328;8.720;2023-03-21T13:02:06;4.73;;;2.77;;
14381;SDS011;7275;50.328;8.720;2023-03-21T13:04:57;3.47;;;2.40;;
14381;SDS011;7275;50.328;8.720;2023-03-21T13:07:33;3.47;;;2.40;;
14381;SDS011;7275;50.328;8.720;2023-03-21T13:10:10;3.90;;;2.50;;
14381;SDS011;7275;50.328;8.720;2023-03-21T13:12:44;4.03;;;2.60;;
14381;SDS011;7275;50.328;8.720;2023-03-21T13:18:26;4.60;;;2.47;;
14381;SDS011;7275;50.328;8.720;2023-03-21T13:21:03;2.97;;;2.20;;
14381;SDS011;7275;50.328;8.720;2023-03-21T13:23:37;4.03;;;2.10;;
14381;SDS011;7275;50.328;8.720;2023-03-21T13:26:07;3.17;;;2.13;;
14381;SDS011;7275;50.328;8.720;2023-03-21T13:28:38;3.43;;;2.30;;
14381;SDS011;7275;50.328;8.720;2023-03-21T13:31:14;3.50;;;2.40;;
14381;SDS011;7275;50.328;8.720;2023-03-21T13:33:44;3.53;;;2.23;;
14381;SDS011;7275;50.328;8.720;2023-03-21T13:36:13;4.63;;;2.50;;
14381;SDS011;7275;50.328;8.720;2023-03-21T13:38:45;3.50;;;2.27;;
14381;SDS011;7275;50.328;8.720;2023-03-21T13:41:17;4.57;;;2.50;;
14381;SDS011;7275;50.328;8.720;2023-03-21T13:43:52;3.47;;;2.63;;
14381;SDS011;7275;50.328;8.720;2023-03-21T13:46:33;2.97;;;2.43;;
14381;SDS011;7275;50.328;8.720;2023-03-21T13:49:24;3.97;;;2.70;;
14381;SDS011;7275;50.328;8.720;2023-03-21T13:51:54;4.13;;;2.70;;
14381;SDS011;7275;50.328;8.720;2023-03-21T13:54:26;3.97;;;2.90;;
14381;SDS011;7275;50.328;8.720;2023-03-21T13:56:56;5.57;;;4.00;;
14381;SDS011;7275;50.328;8.720;2023-03-21T13:59:38;5.30;;;3.80;;
14381;SDS011;7275;50.328;8.720;2023-03-21T14:02:17;4.37;;;3.50;;
14381;SDS011;7275;50.328;8.720;2023-03-21T14:04:52;4.83;;;4.30;;
14381;SDS011;7275;50.328;8.720;2023-03-21T14:07:31;5.77;;;4.50;;
14381;SDS011;7275;50.328;8.720;2023-03-21T14:10:03;6.23;;;4.67;;
14381;SDS011;7275;50.328;8.720;2023-03-21T14:12:36;5.87;;;4.50;;
14381;SDS011;7275;50.328;8.720;2023-03-21T14:15:12;4.80;;;4.17;;
14381;SDS011;7275;50.328;8.720;2023-03-21T14:17:52;7.10;;;4.97;;
14381;SDS011;7275;50.328;8.720;2023-03-21T14:20:21;7.87;;;4.60;;
14381;SDS011;7275;50.328;8.720;2023-03-21T14:22:50;6.63;;;5.07;;
14381;SDS011;7275;50.328;8.720;2023-03-21T14:25:18;7.30;;;5.40;;
14381;SDS011;7275;50.328;8.720;2023-03-21T14:27:52;8.03;;;5.47;;
14381;SDS011;7275;50.328;8.720;2023-03-21T14:30:23;7.97;;;5.40;;
14381;SDS011;7275;50.328;8.720;2023-03-21T14:32:54;6.53;;;5.50;;
14381;SDS011;7275;50.328;8.720;2023-03-21T14:35:25;8.10;;;5.60;;
14381;SDS011;7275;50.328;8.720;2023-03-21T14:37:59;6.83;;;5.40;;
14381;SDS011;7275;50.328;8.720;2023-03-21T14:40:27;7.77;;;5.70;;
14381;SDS011;7275;50.328;8.720;2023-03-21T14:42:55;7.83;;;5.90;;
14381;SDS011;7275;50.328;8.720;2023-03-21T14:45:26;6.27;;;5.27;;
14381;SDS011;7275;50.328;8.720;2023-03-21T14:47:56;5.80;;;5.20;;
14381;SDS011;7275;50.328;8.720;2023-03-21T14:50:27;6.60;;;4.70;;
14381;SDS011;7275;50.328;8.720;2023-03-21T14:53:02;6.30;;;4.70;;
14381;SDS011;7275;50.328;8.720;2023-03-21T14:55:31;7.83;;;4.93;;
14381;SDS011;7275;50.328;8.720;2023-03-21T14:57:58;5.27;;;4.27;;
14381;SDS011;7275;50.328;8.720;2023-03-21T15:00:28;5.03;;;4.37;;
14381;SDS011;7275;50.328;8.720;2023-03-21T15:02:57;6.67;;;4.97;;
14381;SDS011;7275;50.328;8.720;2023-03-21T15:05:28;5.90;;;4.63;;
14381;SDS011;7275;50.328;8.720;2023-03-21T15:07:58;6.77;;;5.00;;
14381;SDS011;7275;50.328;8.720;2023-03-21T15:10:28;5.13;;;4.50;;
14381;SDS011;7275;50.328;8.720;2023-03-21T15:12:58;7.13;;;4.73;;
14381;SDS011;7275;50.328;8.720;2023-03-21T15:15:28;6.17;;;4.87;;
14381;SDS011;7275;50.328;8.720;2023-03-21T15:17:59;6.07;;;4.60;;
14381;SDS011;7275;50.328;8.720;2023-03-21T15:20:32;5.37;;;4.57;;
14381;SDS011;7275;50.328;8.720;2023-03-21T15:23:03;7.13;;;5.00;;
14381;SDS011;7275;50.328;8.720;2023-03-21T15:25:34;6.60;;;5.03;;
14381;SDS011;7275;50.328;8.720;2023-03-21T15:28:03;6.67;;;4.60;;
14381;SDS011;7275;50.328;8.720;2023-03-21T15:30:33;6.13;;;4.80;;